Time;durP1;ratioP1;P1;durP2;ratioP2;P2;SDS_P1;SDS_P2;PMS_P1;PMS_P2;Temp;Humidity;BMP_temperature;BMP_pressure;BME280_temperature;BME280_humidity;BME280_pressure;Samples;Min_cycle;Max_cycle;Signal;HPM_P1;HPM_P2
2022/02/19 00:00:24;;;;;;;;;;;;;;;;;;5093729;28;19908;-59
2022/02/19 00:02:50;;;;;;;;;;;;;;;;;;5092958;28;19912;-51
2022/02/19 00:05:17;;;;;;;;;;;;;;;;;;5092739;28;19908;-54
2022/02/19 00:07:44;;;;;;;;;;;;;;;;;;5093010;28;19908;-52
2022/02/19 00:10:10;;;;;;;;;;;;;;;;;;5092801;28;20382;-50
2022/02/19 00:12:37;;;;;;;;;;;;;;;;;;5092595;28;20270;-53
2022/02/19 00:15:04;;;;;;;;;;;;;;;;;;5092641;28;20318;-53
2022/02/19 00:17:30;;;;;;;;;;;;;;;;;;5092512;28;19921;-53
2022/02/19 00:19:56;;;;;;;;;;;;;;;;;;5093012;28;20404;-49
2022/02/19 00:22:23;;;;;;;;;;;;;;;;;;5092892;28;19909;-58
2022/02/19 00:24:49;;;;;;;;;;;;;;;;;;5092605;28;19922;-57
2022/02/19 00:27:16;;;;;;;;;;;;;;;;;;5092655;28;19915;-55
2022/02/19 00:29:42;;;;;;;;;;;;;;;;;;5091512;28;19915;-56
2022/02/19 00:32:12;;;;;;;;;;;;;;;;;;5093866;28;20274;-54
2022/02/19 00:34:38;;;;;;;;;;;;;;;;;;5096095;28;19908;-55
2022/02/19 00:37:05;;;;;;;;;;;;;;;;;;5096598;28;19916;-56
2022/02/19 00:39:31;;;;;;;;;;;;;;;;;;5096473;28;19908;-53
2022/02/19 00:41:58;;;;;;;;;;;;;;;;;;5096407;28;19908;-57
2022/02/19 00:44:26;;;;;;;;;;;;;;;;;;5096314;28;20386;-56
2022/02/19 00:46:53;;;;;;;;;;;;;;;;;;5094707;28;20326;-58
2022/02/19 00:49:19;;;;;;;;;;;;;;;;;;5096237;28;20328;-57
2022/02/19 00:51:46;;;;;;;;;;;;;;;;;;5096815;28;19939;-57
2022/02/19 00:54:12;;;;;;;;;;;;;;;;;;5096789;28;19915;-59
2022/02/19 00:56:39;;;;;;;;;;;;;;;;;;5096467;28;20358;-59
2022/02/19 00:59:08;;;;;;;;;;;;;;;;;;5096473;28;19912;-62
2022/02/19 01:01:34;;;;;;;;;;;;;;;;;;5096734;28;19915;-50
2022/02/19 01:04:01;;;;;;;;;;;;;;;;;;5096051;28;19959;-57
2022/02/19 01:06:27;;;;;;;;;;;;;;;;;;5094878;28;19915;-60
2022/02/19 01:09:02;;;;;;;;;;;;;;;;;;5096260;28;19947;-55
2022/02/19 01:11:29;;;;;;;;;;;;;;;;;;5095278;28;20371;-62
2022/02/19 01:13:55;;;;;;;;;;;;;;;;;;5096361;28;19908;-53
2022/02/19 01:16:22;;;;;;;;;;;;;;;;;;5095120;28;19958;-50
2022/02/19 01:18:49;;;;;;;;;;;;;;;;;;5094204;28;19924;-57
2022/02/19 01:21:16;;;;;;;;;;;;;;;;;;5096217;28;20052;-58
2022/02/19 01:23:43;;;;;;;;;;;;;;;;;;5095733;28;20204;-60
2022/02/19 01:26:09;;;;;;;;;;;;;;;;;;5095319;28;19908;-54
2022/02/19 01:28:36;;;;;;;;;;;;;;;;;;5095179;28;20001;-56
2022/02/19 01:31:05;;;;;;;;;;;;;;;;;;5096034;28;19915;-59
2022/02/19 01:33:31;;;;;;;;;;;;;;;;;;5095947;28;20436;-58
2022/02/19 01:35:58;;;;;;;;;;;;;;;;;;5095958;28;19909;-59
2022/02/19 01:38:24;;;;;;;;;;;;;;;;;;5095777;28;19917;-62
2022/02/19 01:40:51;;;;;;;;;;;;;;;;;;5095477;28;20002;-56
2022/02/19 01:43:17;;;;;;;;;;;;;;;;;;5095280;28;19908;-55
2022/02/19 01:45:44;;;;;;;;;;;;;;;;;;5095461;28;20382;-57
2022/02/19 01:48:10;;;;;;;;;;;;;;;;;;5094984;28;19956;-56
2022/02/19 01:50:37;;;;;;;;;;;;;;;;;;5095189;28;19908;-52
2022/02/19 01:53:03;;;;;;;;;;;;;;;;;;5089339;28;19920;-53
2022/02/19 01:55:30;;;;;;;;;;;;;;;;;;5092069;28;19908;-56
2022/02/19 01:57:57;;;;;;;;;;;;;;;;;;5090636;28;20287;-47
2022/02/19 02:00:23;;;;;;;;;;;;;;;;;;5093737;28;19969;-54
2022/02/19 02:02:50;;;;;;;;;;;;;;;;;;5089933;28;19915;-51
2022/02/19 02:05:16;;;;;;;;;;;;;;;;;;5091229;28;19915;-51
2022/02/19 02:07:43;;;;;;;;;;;;;;;;;;5091946;28;19908;-49
2022/02/19 02:10:09;;;;;;;;;;;;;;;;;;5091727;28;19908;-50
2022/02/19 02:12:36;;;;;;;;;;;;;;;;;;5090094;28;19949;-50
2022/02/19 02:15:02;;;;;;;;;;;;;;;;;;5090955;28;19923;-49
2022/02/19 02:17:29;;;;;;;;;;;;;;;;;;5090119;28;19956;-43
2022/02/19 02:19:55;;;;;;;;;;;;;;;;;;5086536;28;19919;-52
2022/02/19 02:22:22;;;;;;;;;;;;;;;;;;5084666;28;21336;-57
2022/02/19 02:24:48;;;;;;;;;;;;;;;;;;5085010;28;19908;-56
2022/02/19 02:27:18;;;;;;;;;;;;;;;;;;5068492;28;19954;-51
2022/02/19 02:29:45;;;;;;;;;;;;;;;;;;5069085;28;19908;-49
2022/02/19 02:32:11;;;;;;;;;;;;;;;;;;5081335;28;20404;-51
2022/02/19 02:34:38;;;;;;;;;;;;;;;;;;5080868;28;19969;-55
2022/02/19 02:37:10;;;;;;;;;;;;;;;;;;5086250;28;19923;-52
2022/02/19 02:39:37;;;;;;;;;;;;;;;;;;5067093;28;19908;-55
2022/02/19 02:42:04;;;;;;;;;;;;;;;;;;5080223;28;20333;-56
2022/02/19 02:44:30;;;;;;;;;;;;;;;;;;5067553;28;19938;-59
2022/02/19 02:49:50;;;;;;;;;;;;;;;;;;5077099;28;19912;-56
2022/02/19 02:52:16;;;;;;;;;;;;;;;;;;5083296;28;20359;-53
2022/02/19 02:54:43;;;;;;;;;;;;;;;;;;5084661;28;19915;-46
2022/02/19 02:57:10;;;;;;;;;;;;;;;;;;5084563;28;20010;-54
2022/02/19 02:59:36;;;;;;;;;;;;;;;;;;5084691;28;20008;-54
2022/02/19 03:02:03;;;;;;;;;;;;;;;;;;5083627;28;19938;-54
2022/02/19 03:04:29;;;;;;;;;;;;;;;;;;5082120;28;19915;-53
2022/02/19 03:06:56;;;;;;;;;;;;;;;;;;5086571;28;19908;-55
2022/02/19 03:09:22;;;;;;;;;;;;;;;;;;5086476;28;20370;-54
2022/02/19 03:11:49;;;;;;;;;;;;;;;;;;5087573;28;20347;-55
2022/02/19 03:14:15;;;;;;;;;;;;;;;;;;5075253;28;20456;-54
2022/02/19 03:16:42;;;;;;;;;;;;;;;;;;4960112;28;3531329;-51
2022/02/19 03:19:08;;;;;;;;;;;;;;;;;;5088225;28;19915;-47
2022/02/19 03:21:34;;;;;;;;;;;;;;;;;;5085868;28;20004;-47
2022/02/19 03:24:01;;;;;;;;;;;;;;;;;;5074166;28;19919;-51
2022/02/19 03:26:27;;;;;;;;;;;;;;;;;;5086505;28;20373;-51
2022/02/19 03:28:55;;;;;;;;;;;;;;;;;;5084781;28;19915;-49
2022/02/19 03:31:21;;;;;;;;;;;;;;;;;;5081662;28;19908;-49
2022/02/19 03:33:47;;;;;;;;;;;;;;;;;;5079137;28;19923;-54
2022/02/19 03:36:14;;;;;;;;;;;;;;;;;;5083984;28;19992;-53
2022/02/19 03:38:40;;;;;;;;;;;;;;;;;;5063737;28;20457;-53
2022/02/19 03:41:07;;;;;;;;;;;;;;;;;;5084483;28;19908;-54
2022/02/19 03:43:34;;;;;;;;;;;;;;;;;;5078052;28;19935;-47
2022/02/19 03:46:01;;;;;;;;;;;;;;;;;;5079519;28;20282;-57
2022/02/19 03:48:30;;;;;;;;;;;;;;;;;;5082308;28;19908;-55
2022/02/19 03:50:57;;;;;;;;;;;;;;;;;;5084882;28;19909;-52
2022/02/19 03:53:23;;;;;;;;;;;;;;;;;;5058310;28;19912;-48
2022/02/19 03:55:50;;;;;;;;;;;;;;;;;;5084599;28;19908;-50
2022/02/19 03:58:16;;;;;;;;;;;;;;;;;;5085021;28;19923;-52
2022/02/19 04:00:43;;;;;;;;;;;;;;;;;;5080646;28;19915;-57
2022/02/19 04:03:10;;;;;;;;;;;;;;;;;;5062085;28;20377;-49
2022/02/19 04:05:36;;;;;;;;;;;;;;;;;;5085350;28;20336;-49
2022/02/19 04:08:05;;;;;;;;;;;;;;;;;;5083774;28;19908;-55
2022/02/19 04:10:31;;;;;;;;;;;;;;;;;;5090272;28;19912;-55
2022/02/19 04:12:58;;;;;;;;;;;;;;;;;;5082992;28;20266;-56
2022/02/19 04:15:24;;;;;;;;;;;;;;;;;;5089253;28;20011;-50
2022/02/19 04:17:51;;;;;;;;;;;;;;;;;;5080378;28;19928;-53
2022/02/19 04:20:17;;;;;;;;;;;;;;;;;;5093813;28;19938;-51
2022/02/19 04:22:44;;;;;;;;;;;;;;;;;;5089282;28;19910;-52
2022/02/19 04:25:10;;;;;;;;;;;;;;;;;;5092401;28;20418;-48
2022/02/19 04:27:37;;;;;;;;;;;;;;;;;;5094068;28;19912;-55
2022/02/19 04:30:03;;;;;;;;;;;;;;;;;;5093605;28;19912;-53
2022/02/19 04:32:30;;;;;;;;;;;;;;;;;;5088429;28;19922;-54
2022/02/19 04:34:56;;;;;;;;;;;;;;;;;;5093745;28;19914;-56
2022/02/19 04:37:23;;;;;;;;;;;;;;;;;;5096177;28;19976;-54
2022/02/19 04:39:49;;;;;;;;;;;;;;;;;;5096396;28;20374;-53
2022/02/19 04:42:16;;;;;;;;;;;;;;;;;;5096587;28;19932;-53
2022/02/19 04:44:42;;;;;;;;;;;;;;;;;;5096334;28;20019;-56
2022/02/19 04:47:09;;;;;;;;;;;;;;;;;;5096455;28;20351;-51
2022/02/19 04:49:35;;;;;;;;;;;;;;;;;;5096341;28;19992;-57
2022/02/19 04:52:02;;;;;;;;;;;;;;;;;;5096050;28;19908;-63
2022/02/19 04:54:28;;;;;;;;;;;;;;;;;;5096258;28;19978;-60
2022/02/19 04:56:55;;;;;;;;;;;;;;;;;;5096362;28;19912;-59
2022/02/19 04:59:21;;;;;;;;;;;;;;;;;;5096290;28;19947;-65
2022/02/19 05:01:48;;;;;;;;;;;;;;;;;;5080562;28;19912;-58
2022/02/19 05:04:15;;;;;;;;;;;;;;;;;;5076078;28;19999;-49
2022/02/19 05:06:41;;;;;;;;;;;;;;;;;;5075609;28;19962;-59
2022/02/19 05:09:08;;;;;;;;;;;;;;;;;;5075114;28;19908;-60
2022/02/19 05:11:34;;;;;;;;;;;;;;;;;;5073892;28;19913;-58
2022/02/19 05:14:01;;;;;;;;;;;;;;;;;;5074981;28;20317;-59
2022/02/19 05:16:27;;;;;;;;;;;;;;;;;;5075505;28;19909;-61
2022/02/19 05:18:54;;;;;;;;;;;;;;;;;;5074759;28;19928;-54
2022/02/19 05:21:20;;;;;;;;;;;;;;;;;;5075298;28;20425;-58
2022/02/19 05:23:46;;;;;;;;;;;;;;;;;;5075539;28;20375;-59
2022/02/19 05:26:13;;;;;;;;;;;;;;;;;;5075315;28;20274;-52
2022/02/19 05:28:41;;;;;;;;;;;;;;;;;;5075072;28;20017;-60
2022/02/19 05:31:07;;;;;;;;;;;;;;;;;;5075393;28;20000;-63
2022/02/19 05:33:34;;;;;;;;;;;;;;;;;;5074988;28;19913;-51
2022/02/19 05:36:00;;;;;;;;;;;;;;;;;;5074975;28;19912;-65
2022/02/19 05:38:27;;;;;;;;;;;;;;;;;;5073803;28;20038;-68
2022/02/19 05:40:54;;;;;;;;;;;;;;;;;;5074422;28;19915;-61
2022/02/19 05:43:20;;;;;;;;;;;;;;;;;;5075211;28;19952;-56
2022/02/19 05:45:48;;;;;;;;;;;;;;;;;;5074709;28;19908;-54
2022/02/19 05:48:14;;;;;;;;;;;;;;;;;;5074900;28;20385;-57
2022/02/19 05:50:41;;;;;;;;;;;;;;;;;;5074652;28;19912;-54
2022/02/19 05:53:08;;;;;;;;;;;;;;;;;;5075235;28;19908;-60
2022/02/19 05:55:35;;;;;;;;;;;;;;;;;;5074778;28;19915;-58
2022/02/19 05:58:01;;;;;;;;;;;;;;;;;;5073632;28;19916;-60
2022/02/19 06:00:28;;;;;;;;;;;;;;;;;;5074960;28;19909;-64
2022/02/19 06:02:54;;;;;;;;;;;;;;;;;;5074855;28;19954;-61
2022/02/19 06:05:21;;;;;;;;;;;;;;;;;;5074532;28;20417;-64
2022/02/19 06:07:47;;;;;;;;;;;;;;;;;;5074749;28;19947;-61
2022/02/19 06:10:17;;;;;;;;;;;;;;;;;;5074778;28;19908;-60
2022/02/19 06:12:43;;;;;;;;;;;;;;;;;;5074460;28;19913;-61
2022/02/19 06:15:15;;;;;;;;;;;;;;;;;;5074209;28;19909;-60
2022/02/19 06:17:42;;;;;;;;;;;;;;;;;;5073805;28;20031;-63
2022/02/19 06:20:08;;;;;;;;;;;;;;;;;;5074351;28;19979;-64
2022/02/19 06:22:35;;;;;;;;;;;;;;;;;;5073092;28;19999;-63
2022/02/19 06:25:01;;;;;;;;;;;;;;;;;;5074349;28;19912;-64
2022/02/19 06:27:28;;;;;;;;;;;;;;;;;;5074262;28;19920;-64
2022/02/19 06:29:54;;;;;;;;;;;;;;;;;;5073853;28;19915;-65
2022/02/19 06:32:21;;;;;;;;;;;;;;;;;;5074853;28;19966;-64
2022/02/19 06:34:47;;;;;;;;;;;;;;;;;;5074188;28;19909;-62
2022/02/19 06:37:14;;;;;;;;;;;;;;;;;;5074223;28;19916;-59
2022/02/19 06:39:41;;;;;;;;;;;;;;;;;;5074021;28;19919;-57
2022/02/19 06:42:07;;;;;;;;;;;;;;;;;;5072869;28;19999;-63
2022/02/19 06:44:34;;;;;;;;;;;;;;;;;;5073696;28;19919;-63
2022/02/19 06:47:00;;;;;;;;;;;;;;;;;;5074133;28;19920;-62
2022/02/19 06:50:09;;;;;;;;;;;;;;;;;;5074117;28;19961;-64
2022/02/19 06:52:16;;;;;;;;;;;;;;;;;;5071208;28;19909;-62
2022/02/19 06:54:43;;;;;;;;;;;;;;;;;;5073493;28;19992;-61
2022/02/19 06:57:14;;;;;;;;;;;;;;;;;;5073975;28;19917;-57
2022/02/19 06:59:40;;;;;;;;;;;;;;;;;;5073325;28;19912;-58
2022/02/19 07:02:07;;;;;;;;;;;;;;;;;;5073722;28;19947;-59
2022/02/19 07:04:33;;;;;;;;;;;;;;;;;;5073803;28;19948;-59
2022/02/19 07:07:00;;;;;;;;;;;;;;;;;;5074494;28;19999;-57
2022/02/19 07:09:26;;;;;;;;;;;;;;;;;;5073815;28;19915;-64
2022/02/19 07:11:56;;;;;;;;;;;;;;;;;;5073408;28;19911;-56
2022/02/19 07:14:22;;;;;;;;;;;;;;;;;;5073897;28;19969;-47
2022/02/19 07:16:49;;;;;;;;;;;;;;;;;;5073231;28;20688;-58
2022/02/19 07:19:15;;;;;;;;;;;;;;;;;;5073789;28;19955;-56
2022/02/19 07:21:42;;;;;;;;;;;;;;;;;;5073303;28;19908;-54
2022/02/19 07:24:10;;;;;;;;;;;;;;;;;;5073380;28;19908;-57
2022/02/19 07:26:37;;;;;;;;;;;;;;;;;;5073291;28;19912;-58
2022/02/19 07:29:03;;;;;;;;;;;;;;;;;;5073371;28;20362;-53
2022/02/19 07:31:30;;;;;;;;;;;;;;;;;;5072133;28;19918;-49
2022/02/19 07:33:56;;;;;;;;;;;;;;;;;;5091828;28;19908;-58
2022/02/19 07:36:23;;;;;;;;;;;;;;;;;;5089628;28;19908;-51
2022/02/19 07:38:49;;;;;;;;;;;;;;;;;;5091284;28;19923;-55
2022/02/19 07:41:17;;;;;;;;;;;;;;;;;;5087409;28;19918;-52
2022/02/19 07:43:44;;;;;;;;;;;;;;;;;;5089484;28;19909;-51
2022/02/19 07:46:11;;;;;;;;;;;;;;;;;;5089724;28;19969;-57
2022/02/19 07:48:37;;;;;;;;;;;;;;;;;;5089895;28;19915;-52
2022/02/19 07:59:18;;;;;;;;;;;;;;;;;;5086652;28;19915;-57
2022/02/19 08:01:45;;;;;;;;;;;;;;;;;;5088696;28;19908;-51
2022/02/19 08:04:12;;;;;;;;;;;;;;;;;;5089903;28;19990;-51
2022/02/19 08:06:38;;;;;;;;;;;;;;;;;;5089700;28;20048;-53
2022/02/19 08:09:05;;;;;;;;;;;;;;;;;;5090103;28;19908;-54
2022/02/19 08:11:31;;;;;;;;;;;;;;;;;;5086445;28;19908;-57
2022/02/19 08:13:58;;;;;;;;;;;;;;;;;;5089335;28;19908;-52
2022/02/19 08:16:25;;;;;;;;;;;;;;;;;;5089986;28;20285;-49
2022/02/19 08:18:52;;;;;;;;;;;;;;;;;;5084394;28;20058;-48
2022/02/19 08:21:20;;;;;;;;;;;;;;;;;;5079919;28;20274;-50
2022/02/19 08:23:46;;;;;;;;;;;;;;;;;;5082597;28;19908;-56
2022/02/19 08:26:13;;;;;;;;;;;;;;;;;;5086201;28;19977;-48
2022/02/19 08:28:39;;;;;;;;;;;;;;;;;;5087728;28;19908;-55
2022/02/19 08:31:06;;;;;;;;;;;;;;;;;;5076203;28;19912;-53
2022/02/19 08:33:32;;;;;;;;;;;;;;;;;;5085238;28;19916;-51
2022/02/19 08:35:59;;;;;;;;;;;;;;;;;;5086852;28;19962;-57
2022/02/19 08:38:25;;;;;;;;;;;;;;;;;;5086298;28;19916;-52
2022/02/19 08:40:52;;;;;;;;;;;;;;;;;;5078533;28;19915;-55
2022/02/19 08:43:18;;;;;;;;;;;;;;;;;;5082963;28;19908;-53
2022/02/19 08:45:46;;;;;;;;;;;;;;;;;;5085652;28;19912;-51
2022/02/19 08:48:12;;;;;;;;;;;;;;;;;;5078045;28;19927;-49
2022/02/19 08:50:39;;;;;;;;;;;;;;;;;;5074353;28;19958;-56
2022/02/19 08:53:06;;;;;;;;;;;;;;;;;;5088020;28;19915;-49
2022/02/19 08:55:32;;;;;;;;;;;;;;;;;;5083524;28;19908;-51
2022/02/19 08:57:59;;;;;;;;;;;;;;;;;;5083567;28;19977;-51
2022/02/19 09:00:25;;;;;;;;;;;;;;;;;;5082111;28;19916;-51
2022/02/19 09:02:52;;;;;;;;;;;;;;;;;;5085496;28;20003;-49
2022/02/19 09:05:20;;;;;;;;;;;;;;;;;;5083602;28;19915;-47
2022/02/19 09:07:46;;;;;;;;;;;;;;;;;;5084743;28;20042;-56
2022/02/19 09:10:13;;;;;;;;;;;;;;;;;;5081124;28;19916;-51
2022/02/19 09:12:46;;;;;;;;;;;;;;;;;;5081274;28;19908;-57
2022/02/19 09:15:16;;;;;;;;;;;;;;;;;;5080821;28;20034;-57
2022/02/19 09:17:42;;;;;;;;;;;;;;;;;;5089024;28;19920;-53
2022/02/19 09:20:10;;;;;;;;;;;;;;;;;;5065107;28;19999;-61
2022/02/19 09:22:37;;;;;;;;;;;;;;;;;;5085186;28;19916;-54
2022/02/19 09:25:03;;;;;;;;;;;;;;;;;;5080920;28;19960;-51
2022/02/19 09:27:30;;;;;;;;;;;;;;;;;;5091611;28;19908;-51
2022/02/19 09:29:56;;;;;;;;;;;;;;;;;;5076525;28;19908;-57
2022/02/19 09:32:23;;;;;;;;;;;;;;;;;;5087426;28;19908;-54
2022/02/19 09:34:52;;;;;;;;;;;;;;;;;;5090828;28;20309;-51
2022/02/19 09:37:20;;;;;;;;;;;;;;;;;;5061804;28;20633;-47
2022/02/19 09:39:46;;;;;;;;;;;;;;;;;;5080334;28;19959;-57
2022/02/19 09:42:13;;;;;;;;;;;;;;;;;;5088350;28;19917;-52
2022/02/19 09:44:39;;;;;;;;;;;;;;;;;;5084978;28;19974;-55
2022/02/19 09:47:06;;;;;;;;;;;;;;;;;;5088815;28;19977;-53
2022/02/19 09:49:32;;;;;;;;;;;;;;;;;;5083810;28;20622;-57
2022/02/19 09:51:59;;;;;;;;;;;;;;;;;;5086373;28;19909;-52
2022/02/19 09:54:25;;;;;;;;;;;;;;;;;;5086562;28;19998;-52
2022/02/19 09:56:52;;;;;;;;;;;;;;;;;;5089423;28;19912;-52
2022/02/19 09:59:18;;;;;;;;;;;;;;;;;;5083967;28;19912;-49
2022/02/19 10:01:45;;;;;;;;;;;;;;;;;;5085241;28;20278;-46
2022/02/19 10:04:12;;;;;;;;;;;;;;;;;;5086046;28;19912;-56
2022/02/19 10:06:40;;;;;;;;;;;;;;;;;;5084992;28;19953;-58
2022/02/19 10:09:07;;;;;;;;;;;;;;;;;;5084561;28;20010;-52
2022/02/19 10:11:34;;;;;;;;;;;;;;;;;;5061766;28;19919;-52
2022/02/19 10:14:00;;;;;;;;;;;;;;;;;;5088781;28;20164;-49
2022/02/19 10:16:29;;;;;;;;;;;;;;;;;;5087705;28;19915;-55
2022/02/19 10:18:55;;;;;;;;;;;;;;;;;;5087624;28;20287;-54
2022/02/19 10:21:22;;;;;;;;;;;;;;;;;;5082282;28;19977;-53
2022/02/19 10:23:48;;;;;;;;;;;;;;;;;;5084807;28;19908;-52
2022/02/19 10:26:15;;;;;;;;;;;;;;;;;;5085532;28;19972;-49
2022/02/19 10:28:42;;;;;;;;;;;;;;;;;;5083836;28;20140;-56
2022/02/19 10:31:08;;;;;;;;;;;;;;;;;;5063720;28;20605;-58
2022/02/19 10:33:35;;;;;;;;;;;;;;;;;;5081554;28;19914;-58
2022/02/19 10:36:01;;;;;;;;;;;;;;;;;;5085049;28;20354;-56
2022/02/19 10:38:34;;;;;;;;;;;;;;;;;;5089063;28;20263;-54
2022/02/19 10:41:00;;;;;;;;;;;;;;;;;;5059053;28;20006;-58
2022/02/19 10:43:27;;;;;;;;;;;;;;;;;;5082343;28;19915;-52
2022/02/19 10:45:57;;;;;;;;;;;;;;;;;;5086636;28;19915;-50
2022/02/19 10:48:24;;;;;;;;;;;;;;;;;;5061978;28;20317;-51
2022/02/19 10:50:51;;;;;;;;;;;;;;;;;;5075984;28;19970;-53
2022/02/19 10:53:17;;;;;;;;;;;;;;;;;;5088190;28;19915;-50
2022/02/19 10:55:44;;;;;;;;;;;;;;;;;;5083043;28;20045;-52
2022/02/19 10:58:10;;;;;;;;;;;;;;;;;;5085257;28;19920;-53
2022/02/19 11:00:37;;;;;;;;;;;;;;;;;;5081089;28;19908;-57
2022/02/19 11:03:04;;;;;;;;;;;;;;;;;;5083322;28;19909;-56
2022/02/19 11:05:31;;;;;;;;;;;;;;;;;;5086200;28;19939;-54
2022/02/19 11:07:58;;;;;;;;;;;;;;;;;;5082967;28;19908;-50
2022/02/19 11:10:24;;;;;;;;;;;;;;;;;;5078181;28;20363;-54
2022/02/19 11:12:51;;;;;;;;;;;;;;;;;;5084247;28;19912;-50
2022/02/19 11:15:27;;;;;;;;;;;;;;;;;;5073316;28;19908;-50
2022/02/19 11:17:53;;;;;;;;;;;;;;;;;;5075946;28;19928;-52
2022/02/19 11:20:22;;;;;;;;;;;;;;;;;;5070696;28;19959;-55
2022/02/19 11:23:06;;;;;;;;;;;;;;;;;;5083878;28;20347;-56
2022/02/19 11:25:35;;;;;;;;;;;;;;;;;;5079530;28;19915;-53
2022/02/19 11:28:05;;;;;;;;;;;;;;;;;;5071373;28;19908;-58
2022/02/19 11:30:34;;;;;;;;;;;;;;;;;;5070171;28;20243;-56
2022/02/19 11:33:01;;;;;;;;;;;;;;;;;;5052802;28;19917;-55
2022/02/19 11:35:31;;;;;;;;;;;;;;;;;;5053162;28;20000;-61
2022/02/19 11:37:57;;;;;;;;;;;;;;;;;;5053219;28;19939;-58
2022/02/19 11:40:25;;;;;;;;;;;;;;;;;;5053430;28;19908;-59
2022/02/19 11:42:52;;;;;;;;;;;;;;;;;;5052929;28;19953;-59
2022/02/19 11:45:18;;;;;;;;;;;;;;;;;;5052921;28;19909;-54
2022/02/19 11:47:45;;;;;;;;;;;;;;;;;;5053247;28;19915;-49
2022/02/19 11:50:12;;;;;;;;;;;;;;;;;;5053225;28;19951;-50
2022/02/19 11:52:38;;;;;;;;;;;;;;;;;;5052468;28;20299;-55
2022/02/19 11:55:10;;;;;;;;;;;;;;;;;;5052771;28;20333;-50
2022/02/19 11:57:39;;;;;;;;;;;;;;;;;;5053282;28;19948;-55
2022/02/19 12:00:06;;;;;;;;;;;;;;;;;;5053512;28;19909;-56
2022/02/19 12:02:33;;;;;;;;;;;;;;;;;;5067732;28;19916;-53
2022/02/19 12:05:00;;;;;;;;;;;;;;;;;;5053017;28;19976;-55
2022/02/19 12:07:29;;;;;;;;;;;;;;;;;;5051866;28;20432;-57
2022/02/19 12:09:55;;;;;;;;;;;;;;;;;;5053166;28;19916;-57
2022/02/19 12:12:22;;;;;;;;;;;;;;;;;;5052952;28;19909;-55
2022/02/19 12:15:01;;;;;;;;;;;;;;;;;;5053118;28;19909;-49
2022/02/19 12:17:28;;;;;;;;;;;;;;;;;;5057949;28;19920;-58
2022/02/19 12:19:57;;;;;;;;;;;;;;;;;;5073429;28;19912;-52
2022/02/19 12:22:24;;;;;;;;;;;;;;;;;;5073076;28;19909;-51
2022/02/19 12:24:50;;;;;;;;;;;;;;;;;;5072475;28;19909;-55
2022/02/19 12:27:16;;;;;;;;;;;;;;;;;;5073247;28;20329;-56
2022/02/19 12:29:46;;;;;;;;;;;;;;;;;;5077549;28;20027;-54
2022/02/19 12:32:14;;;;;;;;;;;;;;;;;;5075712;28;19916;-57
2022/02/19 12:34:43;;;;;;;;;;;;;;;;;;5077026;28;20054;-57
2022/02/19 12:37:12;;;;;;;;;;;;;;;;;;5076013;28;19916;-57
2022/02/19 12:39:39;;;;;;;;;;;;;;;;;;5076371;28;19909;-55
2022/02/19 12:42:05;;;;;;;;;;;;;;;;;;5076987;28;19908;-56
2022/02/19 12:44:34;;;;;;;;;;;;;;;;;;5076280;28;19919;-55
2022/02/19 12:47:00;;;;;;;;;;;;;;;;;;5076502;28;19909;-55
2022/02/19 12:49:26;;;;;;;;;;;;;;;;;;5076587;28;19918;-59
2022/02/19 12:51:53;;;;;;;;;;;;;;;;;;5076351;28;20390;-59
2022/02/19 12:54:20;;;;;;;;;;;;;;;;;;5076577;28;19913;-57
2022/02/19 12:56:46;;;;;;;;;;;;;;;;;;5076214;28;20321;-59
2022/02/19 12:59:16;;;;;;;;;;;;;;;;;;5076443;28;19909;-57
2022/02/19 13:01:43;;;;;;;;;;;;;;;;;;5076346;28;19951;-52
2022/02/19 13:04:16;;;;;;;;;;;;;;;;;;5076403;28;20263;-51
2022/02/19 13:06:42;;;;;;;;;;;;;;;;;;5076477;28;19962;-54
2022/02/19 13:09:12;;;;;;;;;;;;;;;;;;5076270;28;19908;-49
2022/02/19 13:11:39;;;;;;;;;;;;;;;;;;5076409;28;19952;-55
2022/02/19 13:14:14;;;;;;;;;;;;;;;;;;5073873;28;20032;-49
2022/02/19 13:16:41;;;;;;;;;;;;;;;;;;5093628;28;19950;-55
2022/02/19 13:19:11;;;;;;;;;;;;;;;;;;5088844;28;19920;-55
2022/02/19 13:21:37;;;;;;;;;;;;;;;;;;5067541;28;20393;-57
2022/02/19 13:24:04;;;;;;;;;;;;;;;;;;5089937;28;19912;-58
2022/02/19 13:26:31;;;;;;;;;;;;;;;;;;5085481;28;19912;-53
2022/02/19 13:28:58;;;;;;;;;;;;;;;;;;5084060;28;19998;-58
2022/02/19 13:31:25;;;;;;;;;;;;;;;;;;5086553;28;20283;-56
2022/02/19 13:33:51;;;;;;;;;;;;;;;;;;5066732;28;19919;-57
2022/02/19 13:36:20;;;;;;;;;;;;;;;;;;5083056;28;19909;-53
2022/02/19 13:38:47;;;;;;;;;;;;;;;;;;5065724;28;20404;-57
2022/02/19 13:41:15;;;;;;;;;;;;;;;;;;5080949;28;20287;-54
2022/02/19 13:43:41;;;;;;;;;;;;;;;;;;5085564;28;19999;-59
2022/02/19 13:46:08;;;;;;;;;;;;;;;;;;5080008;28;20006;-56
2022/02/19 13:48:34;;;;;;;;;;;;;;;;;;5088052;28;19909;-59
2022/02/19 13:51:01;;;;;;;;;;;;;;;;;;5082472;28;19948;-56
2022/02/19 13:53:29;;;;;;;;;;;;;;;;;;5085780;28;20386;-58
2022/02/19 13:55:56;;;;;;;;;;;;;;;;;;5068681;28;19917;-57
2022/02/19 13:58:22;;;;;;;;;;;;;;;;;;5084198;28;19952;-58
2022/02/19 14:00:49;;;;;;;;;;;;;;;;;;5088025;28;19909;-60
2022/02/19 14:03:15;;;;;;;;;;;;;;;;;;5088657;28;19912;-57
2022/02/19 14:05:42;;;;;;;;;;;;;;;;;;5076208;28;19920;-58
2022/02/19 14:08:08;;;;;;;;;;;;;;;;;;5088050;28;20014;-59
2022/02/19 14:10:38;;;;;;;;;;;;;;;;;;5089528;28;19908;-56
2022/02/19 14:13:12;;;;;;;;;;;;;;;;;;5082122;28;19915;-55
2022/02/19 14:15:38;;;;;;;;;;;;;;;;;;5076201;28;19913;-57
2022/02/19 14:18:05;;;;;;;;;;;;;;;;;;5076737;28;20021;-56
2022/02/19 14:20:31;;;;;;;;;;;;;;;;;;5090092;28;19962;-54
2022/02/19 14:22:58;;;;;;;;;;;;;;;;;;5091896;28;19915;-59
2022/02/19 14:25:30;;;;;;;;;;;;;;;;;;5089579;28;19915;-53
2022/02/19 14:28:01;;;;;;;;;;;;;;;;;;5088626;28;19950;-58
2022/02/19 14:30:28;;;;;;;;;;;;;;;;;;5092129;28;19923;-57
2022/02/19 14:32:54;;;;;;;;;;;;;;;;;;5092347;28;19951;-55
2022/02/19 14:35:21;;;;;;;;;;;;;;;;;;5090221;28;19969;-50
2022/02/19 14:37:47;;;;;;;;;;;;;;;;;;5089880;28;19916;-55
2022/02/19 14:40:14;;;;;;;;;;;;;;;;;;5091710;28;19986;-59
2022/02/19 14:42:44;;;;;;;;;;;;;;;;;;5091503;28;19912;-58
2022/02/19 14:45:10;;;;;;;;;;;;;;;;;;5090777;28;20002;-53
2022/02/19 14:47:37;;;;;;;;;;;;;;;;;;5087780;28;20010;-58
2022/02/19 14:50:09;;;;;;;;;;;;;;;;;;5090986;28;19923;-59
2022/02/19 14:52:36;;;;;;;;;;;;;;;;;;5088983;28;20343;-55
2022/02/19 14:55:02;;;;;;;;;;;;;;;;;;5091160;28;19916;-57
2022/02/19 14:57:29;;;;;;;;;;;;;;;;;;5088409;28;19955;-55
2022/02/19 14:59:56;;;;;;;;;;;;;;;;;;5091235;28;19908;-58
2022/02/19 15:02:23;;;;;;;;;;;;;;;;;;5090516;28;19908;-56
2022/02/19 15:04:49;;;;;;;;;;;;;;;;;;5090610;28;19912;-57
2022/02/19 15:07:16;;;;;;;;;;;;;;;;;;5087984;28;19953;-57
2022/02/19 15:09:42;;;;;;;;;;;;;;;;;;5092301;28;19908;-58
2022/02/19 15:12:09;;;;;;;;;;;;;;;;;;5089524;28;19915;-58
2022/02/19 15:14:35;;;;;;;;;;;;;;;;;;5090882;28;19916;-60
2022/02/19 15:17:02;;;;;;;;;;;;;;;;;;5089580;28;19916;-55
2022/02/19 15:19:28;;;;;;;;;;;;;;;;;;5093942;28;20282;-58
2022/02/19 15:21:54;;;;;;;;;;;;;;;;;;5094029;28;19991;-57
2022/02/19 15:24:21;;;;;;;;;;;;;;;;;;5093966;28;19951;-58
2022/02/19 15:26:48;;;;;;;;;;;;;;;;;;5093592;28;20041;-51
2022/02/19 15:29:14;;;;;;;;;;;;;;;;;;5093789;28;19993;-54
2022/02/19 15:31:41;;;;;;;;;;;;;;;;;;5093616;28;19920;-59
2022/02/19 15:34:07;;;;;;;;;;;;;;;;;;5093528;28;19912;-56
2022/02/19 15:36:34;;;;;;;;;;;;;;;;;;5093201;28;19912;-58
2022/02/19 15:39:01;;;;;;;;;;;;;;;;;;5093646;28;19970;-57
2022/02/19 15:41:27;;;;;;;;;;;;;;;;;;5093482;28;20371;-59
2022/02/19 15:43:55;;;;;;;;;;;;;;;;;;5092910;28;20251;-57
2022/02/19 15:46:22;;;;;;;;;;;;;;;;;;5093418;28;19912;-56
2022/02/19 15:48:48;;;;;;;;;;;;;;;;;;5093337;28;19920;-56
2022/02/19 15:51:15;;;;;;;;;;;;;;;;;;5093557;28;19931;-51
2022/02/19 15:53:41;;;;;;;;;;;;;;;;;;5093637;28;20007;-51
2022/02/19 15:56:08;;;;;;;;;;;;;;;;;;5093819;28;19961;-54
2022/02/19 15:58:35;;;;;;;;;;;;;;;;;;5093493;28;20286;-56
2022/02/19 16:01:01;;;;;;;;;;;;;;;;;;5075627;28;20369;-48
2022/02/19 16:03:28;;;;;;;;;;;;;;;;;;5097725;28;20338;-47
2022/02/19 16:05:54;;;;;;;;;;;;;;;;;;5097805;28;19915;-51
2022/02/19 16:08:21;;;;;;;;;;;;;;;;;;5097938;28;20435;-58
2022/02/19 16:10:47;;;;;;;;;;;;;;;;;;5097439;28;20003;-59
2022/02/19 16:13:15;;;;;;;;;;;;;;;;;;5097360;28;19959;-57
2022/02/19 16:15:44;;;;;;;;;;;;;;;;;;5097588;28;20003;-57
2022/02/19 16:18:10;;;;;;;;;;;;;;;;;;5097074;28;19927;-48
2022/02/19 16:20:37;;;;;;;;;;;;;;;;;;5097115;28;19961;-46
2022/02/19 16:23:04;;;;;;;;;;;;;;;;;;5097097;28;20003;-55
2022/02/19 16:25:30;;;;;;;;;;;;;;;;;;5097692;28;19953;-56
2022/02/19 16:27:57;;;;;;;;;;;;;;;;;;5097546;28;20007;-55
2022/02/19 16:30:23;;;;;;;;;;;;;;;;;;5097390;28;19915;-47
2022/02/19 16:32:49;;;;;;;;;;;;;;;;;;5097066;28;19931;-53
2022/02/19 16:35:16;;;;;;;;;;;;;;;;;;5097138;28;19961;-59
2022/02/19 16:37:47;;;;;;;;;;;;;;;;;;5097316;28;19916;-57
2022/02/19 16:40:13;;;;;;;;;;;;;;;;;;5096825;28;19908;-56
2022/02/19 16:42:40;;;;;;;;;;;;;;;;;;5096885;28;19908;-58
2022/02/19 16:45:06;;;;;;;;;;;;;;;;;;5097155;28;19908;-58
2022/02/19 16:47:33;;;;;;;;;;;;;;;;;;5097255;28;19908;-54
2022/02/19 16:50:00;;;;;;;;;;;;;;;;;;5097444;28;19908;-55
2022/02/19 16:52:28;;;;;;;;;;;;;;;;;;5097361;28;19909;-55
2022/02/19 16:54:55;;;;;;;;;;;;;;;;;;5097323;28;20402;-57